Terminal Aerodrome Forecast
Issued by NWS Bismarck, ND

Home | Current Version | Previous Version | Text Only | Print | Product List | Glossary Off
Versions: 1 2 3 4 5 6 7 8 9 10 11 12 13 14 15 16 17 18 19 20 21 22 23

000
FTUS43 KBIS 121725
TAFBIS
TAF
KBIS 121725Z 1218/1318 26009KT P6SM FEW200
     FM130400 30011G19KT P6SM BKN200 WS020/32045KT
     FM130800 31022G32KT P6SM BKN150
     FM131200 32024G34KT P6SM BKN020=

USA.gov is the U.S. government's official web portal to all federal, state and local government web resources and services.